createdAt,value
2022-12-25T00:01:10.122Z,9.67
2022-12-25T00:03:37.751Z,9.65
2022-12-25T00:06:05.605Z,9.64
2022-12-25T00:08:33.126Z,9.66
2022-12-25T00:11:06.105Z,9.70
2022-12-25T00:13:33.292Z,9.76
2022-12-25T00:16:00.085Z,9.79
2022-12-25T00:18:26.904Z,9.81
2022-12-25T00:21:06.340Z,9.79
2022-12-25T00:23:34.758Z,9.76
2022-12-25T00:26:06.106Z,9.68
2022-12-25T00:28:32.998Z,9.56
2022-12-25T00:30:59.706Z,9.44
2022-12-25T00:33:26.440Z,9.37
2022-12-25T00:36:00.765Z,9.33
2022-12-25T00:38:28.096Z,9.31
2022-12-25T00:40:55.309Z,9.33
2022-12-25T00:43:22.218Z,9.36
2022-12-25T00:46:00.152Z,9.36
2022-12-25T00:48:28.149Z,9.33
2022-12-25T00:51:00.942Z,9.25
2022-12-25T00:53:28.720Z,9.19
2022-12-25T00:55:57.600Z,9.15
2022-12-25T00:58:26.020Z,9.10
2022-12-25T01:00:52.937Z,9.06
2022-12-25T01:03:19.794Z,8.97
2022-12-25T01:06:04.963Z,8.91
2022-12-25T01:08:34.684Z,8.86
2022-12-25T01:11:04.798Z,8.84
2022-12-25T01:13:34.884Z,8.84
2022-12-25T01:16:11.773Z,8.82
2022-12-25T01:18:38.961Z,8.79
2022-12-25T01:21:10.879Z,8.75
2022-12-25T01:23:38.068Z,8.70
2022-12-25T01:26:09.657Z,8.65
2022-12-25T01:28:36.708Z,8.62
2022-12-25T01:31:04.628Z,8.60
2022-12-25T01:33:31.711Z,8.58
2022-12-25T01:35:58.752Z,8.62
2022-12-25T01:38:25.787Z,8.62
2022-12-25T01:40:52.688Z,8.60
2022-12-25T01:43:31.165Z,8.55
2022-12-25T01:45:58.863Z,8.48
2022-12-25T01:48:30.780Z,8.39
2022-12-25T01:51:02.037Z,8.30
2022-12-25T01:53:29.352Z,8.26
2022-12-25T01:56:06.846Z,8.24
2022-12-25T01:58:35.156Z,8.24
2022-12-25T02:01:06.178Z,8.25
2022-12-25T02:03:33.033Z,8.20
2022-12-25T02:06:00.822Z,8.15
2022-12-25T02:08:27.692Z,8.10
2022-12-25T02:10:54.417Z,8.06
2022-12-25T02:13:21.163Z,8.08
2022-12-25T02:16:09.524Z,8.13
2022-12-25T02:18:48.251Z,8.17
2022-12-25T02:21:38.177Z,8.23
2022-12-25T02:24:23.323Z,8.26
2022-12-25T02:27:10.293Z,8.29
2022-12-25T02:29:42.679Z,8.29
2022-12-25T02:32:26.544Z,8.29
2022-12-25T02:35:05.602Z,8.26
2022-12-25T02:37:57.053Z,8.21
2022-12-25T02:40:45.449Z,8.14
2022-12-25T02:43:39.525Z,8.12
2022-12-25T02:46:27.944Z,8.18
2022-12-25T02:49:20.172Z,8.22
2022-12-25T02:52:13.027Z,8.24
2022-12-25T02:55:04.321Z,8.22
2022-12-25T02:57:56.380Z,8.19
2022-12-25T03:00:41.765Z,8.18
2022-12-25T03:03:30.802Z,8.19
2022-12-25T03:06:20.259Z,8.18
2022-12-25T03:08:53.692Z,8.21
2022-12-25T03:11:32.991Z,8.28
2022-12-25T03:14:24.019Z,8.30
2022-12-25T03:16:54.161Z,8.31
2022-12-25T03:20:02.585Z,8.30
2022-12-25T03:22:51.025Z,8.32
2022-12-25T03:25:37.840Z,8.30
2022-12-25T03:28:05.778Z,8.25
2022-12-25T03:31:13.144Z,8.21
2022-12-25T03:34:20.867Z,8.17
2022-12-25T03:37:14.491Z,8.14
2022-12-25T03:39:53.405Z,8.16
2022-12-25T03:42:46.234Z,8.20
2022-12-25T03:45:36.268Z,8.22
2022-12-25T03:48:27.929Z,8.19
2022-12-25T03:51:21.544Z,8.19
2022-12-25T03:54:13.061Z,8.18
2022-12-25T03:56:58.936Z,8.18
2022-12-25T03:59:44.593Z,8.18
2022-12-25T04:02:30.215Z,8.17
2022-12-25T04:05:15.566Z,8.15
2022-12-25T04:08:01.017Z,8.18
2022-12-25T04:10:46.396Z,8.23
2022-12-25T04:13:31.819Z,8.26
2022-12-25T04:16:17.149Z,8.27
2022-12-25T04:19:02.599Z,8.26
2022-12-25T04:21:48.213Z,8.24
2022-12-25T04:24:33.503Z,8.20
2022-12-25T04:27:19.046Z,8.16
2022-12-25T04:30:04.316Z,8.12
2022-12-25T04:32:50.313Z,8.07
2022-12-25T04:35:35.767Z,8.03
2022-12-25T04:38:02.418Z,8.00
2022-12-25T04:40:29.081Z,8.01
2022-12-25T04:42:55.627Z,8.03
2022-12-25T04:45:22.376Z,8.04
2022-12-25T04:47:48.978Z,8.03
2022-12-25T04:50:15.769Z,8.02
2022-12-25T04:52:42.849Z,8.01
2022-12-25T04:55:10.758Z,8.01
2022-12-25T04:57:38.152Z,8.01
2022-12-25T05:00:06.338Z,7.99
2022-12-25T05:02:33.480Z,7.98
2022-12-25T05:05:00.350Z,7.93
2022-12-25T05:07:26.981Z,7.90
2022-12-25T05:09:53.716Z,7.89
2022-12-25T05:12:20.257Z,7.94
2022-12-25T05:14:47.002Z,7.97
2022-12-25T05:17:13.572Z,7.97
2022-12-25T05:19:40.263Z,7.97
2022-12-25T05:22:06.835Z,7.99
2022-12-25T05:24:33.685Z,8.01
2022-12-25T05:27:00.431Z,8.02
2022-12-25T05:29:27.007Z,8.00
2022-12-25T05:31:53.716Z,7.98
2022-12-25T05:34:20.266Z,7.96
2022-12-25T05:36:46.921Z,7.92
2022-12-25T05:39:13.785Z,7.88
2022-12-25T05:41:40.807Z,7.91
2022-12-25T05:44:07.518Z,8.01
2022-12-25T05:46:34.154Z,8.09
2022-12-25T05:49:00.885Z,8.16
2022-12-25T05:51:27.601Z,8.16
2022-12-25T05:53:54.243Z,8.15
2022-12-25T05:56:20.917Z,8.13
2022-12-25T05:58:47.685Z,8.10
2022-12-25T06:01:20.962Z,8.05
2022-12-25T06:03:48.166Z,8.03
2022-12-25T06:06:15.061Z,8.01
2022-12-25T06:08:42.001Z,7.99
2022-12-25T06:11:14.968Z,7.99
2022-12-25T06:13:42.011Z,8.01
2022-12-25T06:16:11.708Z,8.02
2022-12-25T06:18:41.304Z,8.03
2022-12-25T06:21:09.815Z,8.03
2022-12-25T06:23:38.256Z,7.98
2022-12-25T06:26:11.367Z,7.92
2022-12-25T06:28:38.146Z,7.84
2022-12-25T06:31:09.646Z,7.78
2022-12-25T06:33:37.473Z,7.72
2022-12-25T06:36:22.054Z,7.66
2022-12-25T06:38:49.215Z,7.67
2022-12-25T06:41:18.394Z,7.70
2022-12-25T06:43:49.980Z,7.75
2022-12-25T06:46:17.637Z,7.77
2022-12-25T06:48:50.368Z,7.79
2022-12-25T06:51:17.946Z,7.80
2022-12-25T06:53:44.693Z,7.83
2022-12-25T06:56:15.769Z,7.84
2022-12-25T06:58:48.495Z,7.82
2022-12-25T07:01:20.729Z,7.80
2022-12-25T07:03:50.633Z,7.80
2022-12-25T07:06:17.447Z,7.83
2022-12-25T07:08:44.180Z,7.89
2022-12-25T07:11:10.876Z,7.96
2022-12-25T07:13:37.764Z,8.02
2022-12-25T07:16:05.904Z,8.04
2022-12-25T07:18:32.717Z,8.06
2022-12-25T07:21:05.095Z,8.07
2022-12-25T07:23:31.815Z,8.09
2022-12-25T07:25:59.595Z,8.09
2022-12-25T07:28:27.574Z,8.10
2022-12-25T07:30:54.248Z,8.11
2022-12-25T07:33:21.053Z,8.17
2022-12-25T07:35:48.023Z,8.26
2022-12-25T07:38:14.672Z,8.36
2022-12-25T07:40:41.293Z,8.45
2022-12-25T07:43:07.830Z,8.52
2022-12-25T07:45:34.563Z,8.57
2022-12-25T07:48:05.233Z,8.60
2022-12-25T07:50:34.137Z,8.63
2022-12-25T07:53:00.790Z,8.64
2022-12-25T07:55:27.316Z,8.68
2022-12-25T07:57:55.152Z,8.70
2022-12-25T08:00:22.215Z,8.74
2022-12-25T08:02:50.264Z,8.83
2022-12-25T08:05:17.277Z,8.93
2022-12-25T08:07:44.027Z,9.02
2022-12-25T08:10:11.203Z,9.10
2022-12-25T08:12:37.923Z,9.15
2022-12-25T08:15:05.242Z,9.18
2022-12-25T08:17:34.982Z,9.20
2022-12-25T08:20:01.644Z,9.21
2022-12-25T08:22:28.250Z,9.22
2022-12-25T08:24:54.916Z,9.20
2022-12-25T08:27:21.507Z,9.20
2022-12-25T08:29:48.178Z,9.22
2022-12-25T08:32:14.789Z,9.26
2022-12-25T08:34:41.379Z,9.30
2022-12-25T08:37:08.112Z,9.31
2022-12-25T08:39:34.780Z,9.30
2022-12-25T08:42:01.671Z,9.30
2022-12-25T08:44:28.514Z,9.31
2022-12-25T08:46:55.276Z,9.30
2022-12-25T08:49:22.094Z,9.29
2022-12-25T08:51:49.042Z,9.31
2022-12-25T08:54:15.696Z,9.37
2022-12-25T08:56:42.419Z,9.46
2022-12-25T08:59:09.161Z,9.55
2022-12-25T09:01:36.116Z,9.65
2022-12-25T09:04:03.105Z,9.74
2022-12-25T09:06:29.908Z,9.81
2022-12-25T09:08:56.601Z,9.87
2022-12-25T09:11:24.227Z,9.89
2022-12-25T09:13:50.931Z,9.89
2022-12-25T09:16:20.397Z,9.89
2022-12-25T09:18:47.967Z,9.87
2022-12-25T09:21:16.065Z,9.86
2022-12-25T09:23:42.923Z,9.89
2022-12-25T09:26:14.156Z,9.94
2022-12-25T09:28:46.633Z,9.96
2022-12-25T09:31:17.282Z,9.97
2022-12-25T09:33:44.062Z,9.99
2022-12-25T09:36:11.162Z,10.00
2022-12-25T09:38:38.124Z,10.01
2022-12-25T09:41:26.626Z,10.04
2022-12-25T09:44:00.850Z,10.07
2022-12-25T09:46:36.959Z,10.12
2022-12-25T09:49:17.034Z,10.19
2022-12-25T09:51:45.982Z,10.31
2022-12-25T09:54:22.648Z,10.41
2022-12-25T09:56:49.516Z,10.50
2022-12-25T09:59:24.508Z,10.56
2022-12-25T10:02:11.789Z,10.62
2022-12-25T10:05:20.809Z,10.68
2022-12-25T10:07:47.480Z,10.76
2022-12-25T10:10:20.108Z,10.79
2022-12-25T10:13:14.445Z,10.83
2022-12-25T10:15:45.822Z,10.90
2022-12-25T10:18:41.029Z,10.97
2022-12-25T10:21:13.392Z,11.07
2022-12-25T10:23:52.995Z,11.19
2022-12-25T10:26:25.387Z,11.33
2022-12-25T10:29:01.403Z,11.43
2022-12-25T10:31:30.565Z,11.51
2022-12-25T10:33:58.259Z,11.58
2022-12-25T10:36:28.272Z,11.65
2022-12-25T10:38:56.064Z,11.70
2022-12-25T10:41:22.768Z,11.74
2022-12-25T10:43:52.945Z,11.77
2022-12-25T10:46:21.124Z,11.81
2022-12-25T10:49:02.955Z,11.85
2022-12-25T10:51:34.027Z,11.91
2022-12-25T10:54:19.373Z,11.96
2022-12-25T10:57:02.884Z,11.99
2022-12-25T10:59:35.017Z,12.01
2022-12-25T11:02:13.938Z,12.04
2022-12-25T11:04:41.086Z,12.08
2022-12-25T11:07:20.327Z,12.15
2022-12-25T11:09:54.626Z,12.23
2022-12-25T11:12:31.830Z,12.30
2022-12-25T11:15:06.515Z,12.34
2022-12-25T11:17:33.231Z,12.36
2022-12-25T11:20:01.356Z,12.37
2022-12-25T11:22:29.370Z,12.38
2022-12-25T11:24:56.163Z,12.38
2022-12-25T11:27:26.651Z,12.39
2022-12-25T11:30:05.042Z,12.40
2022-12-25T11:32:39.640Z,12.41
2022-12-25T11:35:13.220Z,12.40
2022-12-25T11:37:42.892Z,12.41
2022-12-25T11:40:16.440Z,12.40
2022-12-25T11:42:55.733Z,12.39
2022-12-25T11:45:35.213Z,12.40
2022-12-25T11:48:13.863Z,12.46
2022-12-25T11:50:42.892Z,12.53
2022-12-25T11:53:21.647Z,12.58
2022-12-25T11:55:57.400Z,12.61
2022-12-25T11:58:33.187Z,12.64
2022-12-25T12:01:05.121Z,12.69
2022-12-25T12:03:37.563Z,12.74
2022-12-25T12:06:07.403Z,12.76
2022-12-25T12:08:36.197Z,12.79
2022-12-25T12:11:16.316Z,12.81
2022-12-25T12:14:01.711Z,12.84
2022-12-25T12:16:29.309Z,12.85
2022-12-25T12:18:56.111Z,12.88
2022-12-25T12:21:26.144Z,12.92
2022-12-25T12:24:05.009Z,12.93
2022-12-25T12:26:38.022Z,12.97
2022-12-25T12:29:07.830Z,12.98
2022-12-25T12:31:48.824Z,12.97
2022-12-25T12:34:27.060Z,12.94
2022-12-25T12:37:02.200Z,12.92
2022-12-25T12:39:35.642Z,12.89
2022-12-25T12:42:10.972Z,12.85
2022-12-25T12:44:37.712Z,12.88
2022-12-25T12:47:04.505Z,12.93
2022-12-25T12:49:33.746Z,12.97
2022-12-25T12:52:25.420Z,12.98
2022-12-25T12:55:05.264Z,12.98
2022-12-25T12:57:39.313Z,12.98
2022-12-25T13:00:20.058Z,12.97
2022-12-25T13:02:55.832Z,12.95
2022-12-25T13:05:54.277Z,12.96
2022-12-25T13:08:33.437Z,12.94
2022-12-25T13:11:10.967Z,12.92
2022-12-25T13:13:41.906Z,12.90
2022-12-25T13:16:34.754Z,12.89
2022-12-25T13:19:07.528Z,12.85
2022-12-25T13:21:35.369Z,12.82
2022-12-25T13:24:17.920Z,12.78
2022-12-25T13:26:44.626Z,12.75
2022-12-25T13:29:33.184Z,12.73
2022-12-25T13:32:01.991Z,12.71
2022-12-25T13:34:32.660Z,12.75
2022-12-25T13:37:06.483Z,12.82
2022-12-25T13:39:35.162Z,12.87
2022-12-25T13:42:05.510Z,12.88
2022-12-25T13:45:00.716Z,12.91
2022-12-25T13:47:43.268Z,12.91
2022-12-25T13:50:24.217Z,12.90
2022-12-25T13:52:52.390Z,12.89
2022-12-25T13:55:25.797Z,12.87
2022-12-25T13:57:59.300Z,12.84
2022-12-25T14:00:33.651Z,12.80
2022-12-25T14:03:00.549Z,12.76
2022-12-25T14:05:37.936Z,12.73
2022-12-25T14:08:25.281Z,12.70
2022-12-25T14:10:53.145Z,12.71
2022-12-25T14:13:23.561Z,12.73
2022-12-25T14:15:53.680Z,12.74
2022-12-25T14:18:23.051Z,12.74
2022-12-25T14:20:55.472Z,12.74
2022-12-25T14:23:22.436Z,12.75
2022-12-25T14:25:49.200Z,12.75
2022-12-25T14:28:27.119Z,12.73
2022-12-25T14:30:54.688Z,12.72
2022-12-25T14:33:24.212Z,12.70
2022-12-25T14:35:51.619Z,12.69
2022-12-25T14:38:26.254Z,12.69
2022-12-25T14:41:24.196Z,12.66
2022-12-25T14:43:54.437Z,12.63
2022-12-25T14:46:26.848Z,12.60
2022-12-25T14:49:05.679Z,12.59
2022-12-25T14:51:33.856Z,12.60
2022-12-25T14:54:04.294Z,12.60
2022-12-25T14:56:38.261Z,12.59
2022-12-25T14:59:07.781Z,12.58
2022-12-25T15:01:38.603Z,12.56
2022-12-25T15:04:11.158Z,12.53
2022-12-25T15:06:52.916Z,12.50
2022-12-25T15:09:20.063Z,12.46
2022-12-25T15:11:51.751Z,12.42
2022-12-25T15:14:18.985Z,12.39
2022-12-25T15:16:48.727Z,12.36
2022-12-25T15:19:25.269Z,12.32
2022-12-25T15:21:53.266Z,12.27
2022-12-25T15:24:19.924Z,12.22
2022-12-25T15:26:46.721Z,12.16
2022-12-25T15:29:13.461Z,12.15
2022-12-25T15:31:41.768Z,12.18
2022-12-25T15:34:20.966Z,12.20
2022-12-25T15:36:48.575Z,12.23
2022-12-25T15:39:15.333Z,12.24
2022-12-25T15:42:00.776Z,12.24
2022-12-25T15:44:27.449Z,12.23
2022-12-25T15:46:54.775Z,12.17
2022-12-25T15:49:21.512Z,12.15
2022-12-25T15:51:48.413Z,12.11
2022-12-25T15:54:15.116Z,12.08
2022-12-25T15:56:50.869Z,12.04
2022-12-25T15:59:20.035Z,12.04
2022-12-25T16:01:55.144Z,12.05
2022-12-25T16:04:22.926Z,12.08
2022-12-25T16:06:50.379Z,12.10
2022-12-25T16:09:18.680Z,12.10
2022-12-25T16:11:45.797Z,12.09
2022-12-25T16:14:12.902Z,12.09
2022-12-25T16:16:40.156Z,12.07
2022-12-25T16:19:07.758Z,12.04
2022-12-25T16:21:40.575Z,12.02
2022-12-25T16:24:07.564Z,12.00
2022-12-25T16:26:34.645Z,11.97
2022-12-25T16:29:06.676Z,11.94
2022-12-25T16:31:34.308Z,11.94
2022-12-25T16:34:01.820Z,11.96
2022-12-25T16:36:28.576Z,12.00
2022-12-25T16:38:55.478Z,12.01
2022-12-25T16:41:22.763Z,12.00
2022-12-25T16:43:49.749Z,12.01
2022-12-25T16:46:19.369Z,11.98
2022-12-25T16:48:46.443Z,11.96
2022-12-25T16:51:19.307Z,11.93
2022-12-25T16:53:46.672Z,11.91
2022-12-25T16:56:16.587Z,11.88
2022-12-25T16:58:47.499Z,11.85
2022-12-25T17:01:16.774Z,11.87
2022-12-25T17:03:44.100Z,11.90
2022-12-25T17:06:15.884Z,11.92
2022-12-25T17:08:43.748Z,11.92
2022-12-25T17:11:10.683Z,11.90
2022-12-25T17:13:37.556Z,11.88
2022-12-25T17:16:25.597Z,11.87
2022-12-25T17:18:57.583Z,11.83
2022-12-25T17:21:25.157Z,11.82
2022-12-25T17:23:54.280Z,11.80
2022-12-25T17:26:24.918Z,11.77
2022-12-25T17:28:51.756Z,11.74
2022-12-25T17:31:19.096Z,11.73
2022-12-25T17:33:45.958Z,11.74
2022-12-25T17:36:15.626Z,11.75
2022-12-25T17:38:42.962Z,11.76
2022-12-25T17:41:12.342Z,11.74
2022-12-25T17:43:45.710Z,11.73
2022-12-25T17:46:18.025Z,11.72
2022-12-25T17:48:45.618Z,11.68
2022-12-25T17:51:16.212Z,11.66
2022-12-25T17:53:45.331Z,11.65
2022-12-25T17:56:13.038Z,11.64
2022-12-25T17:58:40.080Z,11.66
2022-12-25T18:01:09.968Z,11.70
2022-12-25T18:03:36.917Z,11.73
2022-12-25T18:06:07.702Z,11.74
2022-12-25T18:08:39.259Z,11.74
2022-12-25T18:11:09.359Z,11.73
2022-12-25T18:13:37.725Z,11.70
2022-12-25T18:16:06.615Z,11.68
2022-12-25T18:18:35.062Z,11.67
2022-12-25T18:21:02.404Z,11.65
2022-12-25T18:23:29.547Z,11.63
2022-12-25T18:25:56.676Z,11.64
2022-12-25T18:28:23.509Z,11.67
2022-12-25T18:30:50.257Z,11.71
2022-12-25T18:33:16.930Z,11.72
2022-12-25T18:35:46.685Z,11.72
2022-12-25T18:38:14.371Z,11.71
2022-12-25T18:40:46.716Z,11.72
2022-12-25T18:43:14.772Z,11.71
2022-12-25T18:45:42.270Z,11.69
2022-12-25T18:48:10.517Z,11.64
2022-12-25T18:50:39.180Z,11.64
2022-12-25T18:53:06.958Z,11.66
2022-12-25T18:55:35.598Z,11.67
2022-12-25T18:58:02.532Z,11.68
2022-12-25T19:00:29.302Z,11.68
2022-12-25T19:02:58.563Z,11.68
2022-12-25T19:05:26.053Z,11.66
2022-12-25T19:07:53.067Z,11.62
2022-12-25T19:10:19.838Z,11.58
2022-12-25T19:12:46.711Z,11.56
2022-12-25T19:15:13.969Z,11.59
2022-12-25T19:17:40.723Z,11.64
2022-12-25T19:20:08.368Z,11.68
2022-12-25T19:22:35.231Z,11.70
2022-12-25T19:25:01.965Z,11.72
2022-12-25T19:27:28.820Z,11.72
2022-12-25T19:29:55.690Z,11.70
2022-12-25T19:32:22.517Z,11.68
2022-12-25T19:34:49.240Z,11.64
2022-12-25T19:37:16.208Z,11.61
2022-12-25T19:39:46.753Z,11.58
2022-12-25T19:42:16.049Z,11.59
2022-12-25T19:44:43.424Z,11.61
2022-12-25T19:47:10.767Z,11.62
2022-12-25T19:49:37.491Z,11.64
2022-12-25T19:52:04.415Z,11.64
2022-12-25T19:54:31.468Z,11.63
2022-12-25T19:56:58.176Z,11.63
2022-12-25T19:59:24.904Z,11.61
2022-12-25T20:01:51.751Z,11.59
2022-12-25T20:04:18.745Z,11.54
2022-12-25T20:06:45.887Z,11.55
2022-12-25T20:09:21.269Z,11.60
2022-12-25T20:11:48.840Z,11.63
2022-12-25T20:14:16.690Z,11.63
2022-12-25T20:16:44.276Z,11.62
2022-12-25T20:19:14.517Z,11.61
2022-12-25T20:21:41.847Z,11.60
2022-12-25T20:24:11.024Z,11.59
2022-12-25T20:26:39.553Z,11.58
2022-12-25T20:29:06.813Z,11.56
2022-12-25T20:31:35.031Z,11.53
2022-12-25T20:34:07.538Z,11.54
2022-12-25T20:36:37.637Z,11.58
2022-12-25T20:39:09.611Z,11.60
2022-12-25T20:41:37.615Z,11.61
2022-12-25T20:44:06.470Z,11.59
2022-12-25T20:46:33.365Z,11.55
2022-12-25T20:49:02.097Z,11.52
2022-12-25T20:51:28.980Z,11.49
2022-12-25T20:53:56.765Z,11.45
2022-12-25T20:56:25.826Z,11.42
2022-12-25T20:58:58.883Z,11.42
2022-12-25T21:01:27.272Z,11.46
2022-12-25T21:03:55.037Z,11.47
2022-12-25T21:06:23.243Z,11.48
2022-12-25T21:08:50.037Z,11.48
2022-12-25T21:11:18.103Z,11.46
2022-12-25T21:13:46.228Z,11.43
2022-12-25T21:16:17.230Z,11.40
2022-12-25T21:18:44.484Z,11.35
2022-12-25T21:21:11.427Z,11.31
2022-12-25T21:23:40.142Z,11.29
2022-12-25T21:26:19.056Z,11.30
2022-12-25T21:28:50.723Z,11.32
2022-12-25T21:31:18.425Z,11.34
2022-12-25T21:33:55.270Z,11.34
2022-12-25T21:36:30.898Z,11.33
2022-12-25T21:39:08.101Z,11.31
2022-12-25T21:41:37.961Z,11.28
2022-12-25T21:44:05.375Z,11.24
2022-12-25T21:46:32.457Z,11.24
2022-12-25T21:49:00.852Z,11.27
2022-12-25T21:51:49.519Z,11.28
2022-12-25T21:54:18.086Z,11.29
2022-12-25T21:56:47.275Z,11.29
2022-12-25T21:59:20.532Z,11.28
2022-12-25T22:01:48.270Z,11.27
2022-12-25T22:04:16.913Z,11.24
2022-12-25T22:07:03.676Z,11.21
2022-12-25T22:09:30.694Z,11.17
2022-12-25T22:12:16.713Z,11.19
2022-12-25T22:14:55.420Z,11.23
2022-12-25T22:17:49.818Z,11.25
2022-12-25T22:20:19.738Z,11.24
2022-12-25T22:22:46.883Z,11.23
2022-12-25T22:25:14.432Z,11.22
2022-12-25T22:27:43.078Z,11.21
2022-12-25T22:30:16.163Z,11.19
2022-12-25T22:32:43.078Z,11.17
2022-12-25T22:35:12.355Z,11.19
2022-12-25T22:37:40.457Z,11.24
2022-12-25T22:40:08.964Z,11.25
2022-12-25T22:42:35.794Z,11.27
2022-12-25T22:45:04.337Z,11.28
2022-12-25T22:47:31.300Z,11.27
2022-12-25T22:49:58.105Z,11.27
2022-12-25T22:52:24.837Z,11.25
2022-12-25T22:54:51.522Z,11.23
2022-12-25T22:57:18.257Z,11.21
2022-12-25T22:59:46.016Z,11.23
2022-12-25T23:02:13.162Z,11.27
2022-12-25T23:04:40.005Z,11.30
2022-12-25T23:07:07.007Z,11.30
2022-12-25T23:09:34.343Z,11.30
2022-12-25T23:12:01.021Z,11.29
2022-12-25T23:14:39.964Z,11.28
2022-12-25T23:17:29.645Z,11.27
2022-12-25T23:20:17.775Z,11.24
2022-12-25T23:23:05.275Z,11.20
2022-12-25T23:25:52.927Z,11.20
2022-12-25T23:28:40.213Z,11.23
2022-12-25T23:31:07.241Z,11.25
2022-12-25T23:33:34.264Z,11.22
2022-12-25T23:36:01.210Z,11.22
2022-12-25T23:38:28.157Z,11.21
2022-12-25T23:40:55.000Z,11.19
2022-12-25T23:43:21.850Z,11.18
2022-12-25T23:45:48.606Z,11.16
2022-12-25T23:48:15.426Z,11.17
2022-12-25T23:50:42.165Z,11.19
2022-12-25T23:53:10.999Z,11.20
2022-12-25T23:55:37.905Z,11.20
2022-12-25T23:58:04.949Z,11.21
